createdAt,value
2023-04-02T10:14:55.868Z,48.55
2023-04-02T10:17:23.355Z,48.08
2023-04-02T10:19:55.982Z,48.05
2023-04-02T10:22:22.681Z,47.97
2023-04-02T10:24:49.290Z,48.18
2023-04-02T10:31:04.448Z,44.44
2023-04-02T10:33:34.745Z,45.97
2023-04-02T10:36:19.377Z,46.65
2023-04-02T10:38:51.099Z,47.07
2023-04-02T10:41:26.672Z,47.24
2023-04-02T10:43:59.251Z,47.17
2023-04-02T10:46:27.465Z,47.44
2023-04-02T10:48:57.189Z,47.43
2023-04-02T10:51:23.391Z,47.80
2023-04-02T10:53:49.579Z,47.71
2023-04-02T10:56:16.062Z,47.75
2023-04-02T10:58:56.236Z,47.45
2023-04-02T11:01:29.142Z,47.78
2023-04-02T11:03:58.780Z,47.53
2023-04-02T11:06:43.985Z,48.04
2023-04-02T11:09:16.513Z,47.67
2023-04-02T13:02:18.405Z,62.11
2023-04-02T13:12:32.079Z,60.99
2023-04-02T13:17:29.673Z,61.36
2023-04-02T13:19:56.066Z,61.37
2023-04-02T13:26:56.918Z,58.64
2023-04-02T13:29:25.016Z,58.83
2023-04-02T13:31:52.595Z,60.79
2023-04-02T13:34:19.186Z,62.49
2023-04-02T13:36:45.826Z,62.72
2023-04-02T13:39:12.237Z,62.46
2023-04-02T13:41:49.921Z,62.62
2023-04-02T13:44:19.406Z,62.32
2023-04-02T13:46:46.444Z,62.72
2023-04-02T13:49:12.887Z,62.52
2023-04-02T13:51:41.916Z,62.88
2023-04-02T13:54:15.231Z,63.53
2023-04-02T13:56:41.850Z,63.04
2023-04-02T13:59:08.284Z,62.99
2023-04-02T14:01:35.130Z,63.20
2023-04-02T14:04:02.577Z,63.23
2023-04-02T14:06:44.780Z,63.29
2023-04-02T14:09:21.330Z,63.28
2023-04-02T14:12:00.024Z,63.19
2023-04-02T14:14:38.096Z,63.20
2023-04-02T14:17:40.798Z,63.26
2023-04-02T14:20:12.304Z,62.90
2023-04-02T14:22:38.730Z,63.17
2023-04-02T14:25:14.986Z,63.55
2023-04-02T14:27:42.183Z,63.47
2023-04-02T14:30:08.642Z,63.65
2023-04-02T14:32:44.125Z,63.71
2023-04-02T14:35:13.492Z,63.08
2023-04-02T14:37:45.763Z,63.65
2023-04-02T14:40:21.499Z,63.58
2023-04-02T14:42:53.826Z,63.40
2023-04-02T14:45:43.880Z,63.65
2023-04-02T14:48:13.001Z,63.64
2023-04-02T14:50:41.076Z,63.78
2023-04-02T14:53:11.809Z,64.01
2023-04-02T14:55:43.780Z,63.45
2023-04-02T14:58:15.216Z,63.81
2023-04-02T15:00:44.045Z,63.78
2023-04-02T15:03:21.429Z,63.40
2023-04-02T15:05:49.688Z,63.98
2023-04-02T15:08:16.132Z,64.23
2023-04-02T15:10:54.221Z,63.61
2023-04-02T15:13:22.992Z,64.29
2023-04-02T15:15:52.705Z,64.00
2023-04-02T15:18:19.200Z,64.09
2023-04-02T15:20:48.340Z,64.71
2023-04-02T15:23:32.273Z,64.35
2023-04-02T15:26:05.364Z,64.34
2023-04-02T15:28:38.262Z,64.36
2023-04-02T15:31:11.490Z,64.12
2023-04-02T15:33:37.939Z,64.75
2023-04-02T15:36:04.447Z,65.07
2023-04-02T15:38:38.310Z,65.05
2023-04-02T15:41:10.661Z,65.29
2023-04-02T15:43:56.670Z,65.41
2023-04-02T15:46:38.028Z,66.56
2023-04-02T15:49:08.976Z,66.65
2023-04-02T15:51:35.362Z,67.26
2023-04-02T15:54:10.080Z,66.73
2023-04-02T15:56:55.491Z,67.68
2023-04-02T15:59:22.182Z,68.05
2023-04-02T16:01:59.674Z,68.08
2023-04-02T16:04:37.619Z,69.07
2023-04-02T16:07:04.081Z,68.90
2023-04-02T16:09:39.770Z,68.38
2023-04-02T16:12:13.678Z,67.93
2023-04-02T16:14:41.134Z,68.37
2023-04-02T16:17:23.668Z,68.18
2023-04-02T16:19:53.113Z,67.89
2023-04-02T16:22:22.958Z,68.13
